L M Clayton Airport
KOLF : now visible

Airfield :











YOU CAN JOIN US ON...

 
LOGIN :

Register | Disclaimer

   EN    FR    IT 

 









Legend :    VFR   Marginal VFR   IFR   Intensive IFR   Very Intensive IFR
Visi :
Ceiling :
>= 8 km
>= 3000ft
5 to 8 km
1000 to 3000 ft
1500m to 5 km
500 to 1000 ft
800 to 1500m
200 to 500 ft
< 800m
< 200 ft
Symbols :   Thunderstorms  Fog  Heavy snow  Heavy precipitations  Wind > 20 kt






- Airport Elevation : 1986 ft


KOLF - L M Clayton

CURRENT METAR :
  • 120553Z AUTO 03004KT 9SM CLR M14/M17 A2998 RMK AO2 SNE04 SLP200 P0000 60001 T11441172 11106 21144 51007

EXPIRED METARs :
  • 120539Z AUTO 04006KT 8SM SCT020 M14/M16 A2998 RMK AO2 SNE04 P0000 T11391161
  • 120522Z AUTO 03006KT 7SM OVC017 M13/M15 A2998 RMK AO2 SNE04 P0000 T11281150
  • 120503Z AUTO 03004KT 4SM -SN BR OVC013 M12/M14 A2998 RMK AO2 P0000 T11171139
  • 120453Z AUTO 04004KT 2 1/2SM -SN OVC014 M11/M14 A2998 RMK AO2 SNB24 SLP197 P0001 T11111139
  • 120440Z AUTO 04005KT 1SM -SN VV013 M11/M13 A2998 RMK AO2 SNB24 P0000 T11061133
  • 120430Z AUTO 05007KT 1 3/4SM -SN OVC013 M11/M13 A2997 RMK AO2 SNB24 P0000 T11061133
  • 120418Z AUTO 06008KT 8SM OVC013 M11/M13 A2997 RMK AO2 T11061133
  • 120353Z AUTO 07009KT 10SM OVC016 M11/M13 A2996 RMK AO2 SLP190 T11061133

TAF KOLF
Valid from the 12 at 06:00 until the 13 at 06:00 UTC


120520Z 1206/1306 VRB06KT 2SM -SN OVC014
FM120800 VRB06KT 5SM BR VCSH OVC020
FM122000 VRB06KT P6SM BKN040
FM130200 VRB06KT P6SM BKN020
PROB30 1302/1305 2SM -SN OVC015



MET'MAP, your aeronautical weather chart ! - Copyright ORBIFLY December 2007 - Disclaimer

ORBIFLY MET'MAP TEAM :

Programming & Development : Alexandra Zaïnal
Concept & original design : Baudouin d'Aumeries
Assistance for programming : Marc-Olivier Méhu
Technical & hardware support : Manuel Goepfert

Contact : metmap@orbifly.com




SOURCES & CREDITS :

   NOAA       Earth
Advisory